createdAt,value
2023-05-10T00:04:37.486Z,12.81
2023-05-10T00:09:44.117Z,12.64
2023-05-10T00:14:52.026Z,12.55
2023-05-10T00:19:57.389Z,12.60
2023-05-10T00:25:02.906Z,12.61
2023-05-10T00:30:13.530Z,12.43
2023-05-10T00:35:19.784Z,12.35
2023-05-10T00:40:26.324Z,12.36
2023-05-10T00:45:43.515Z,12.22
2023-05-10T00:50:48.692Z,12.28
2023-05-10T00:55:53.893Z,12.15
2023-05-10T01:01:02.601Z,11.99
2023-05-10T01:06:08.797Z,12.05
2023-05-10T01:11:16.375Z,11.88
2023-05-10T01:16:24.481Z,11.84
2023-05-10T01:21:37.452Z,11.74
2023-05-10T01:27:12.473Z,11.84
2023-05-10T01:32:29.298Z,11.75
2023-05-10T01:37:44.683Z,11.77
2023-05-10T01:42:54.085Z,11.66
2023-05-10T01:48:09.966Z,11.63
2023-05-10T01:53:17.035Z,11.65
2023-05-10T01:58:30.075Z,11.69
2023-05-10T02:03:41.080Z,11.65
2023-05-10T02:08:48.616Z,11.61
2023-05-10T02:13:55.677Z,11.39
2023-05-10T02:19:10.459Z,11.46
2023-05-10T02:24:19.970Z,11.19
2023-05-10T02:29:27.141Z,11.29
2023-05-10T02:34:36.581Z,11.22
2023-05-10T02:39:45.075Z,11.13
2023-05-10T02:44:56.035Z,11.24
2023-05-10T02:50:03.977Z,11.10
2023-05-10T02:55:17.061Z,11.11
2023-05-10T03:00:22.640Z,11.09
2023-05-10T03:05:32.356Z,11.03
2023-05-10T03:10:51.974Z,11.07
2023-05-10T03:16:02.638Z,10.96
2023-05-10T03:21:14.309Z,10.83
2023-05-10T03:26:27.854Z,10.83
2023-05-10T03:31:40.649Z,10.75
2023-05-10T03:36:48.764Z,10.69
2023-05-10T03:41:57.690Z,10.69
2023-05-10T03:47:04.516Z,10.70
2023-05-10T03:52:13.595Z,10.79
2023-05-10T03:57:22.590Z,10.81
2023-05-10T04:02:29.463Z,10.97
2023-05-10T04:07:37.838Z,10.92
2023-05-10T04:12:42.983Z,10.96
2023-05-10T04:17:48.296Z,11.38
2023-05-10T04:22:56.210Z,11.32
2023-05-10T04:28:01.206Z,11.69
2023-05-10T04:33:06.320Z,11.80
2023-05-10T04:38:15.300Z,12.70
2023-05-10T04:43:20.342Z,13.12
2023-05-10T04:48:25.302Z,13.12
2023-05-10T04:53:34.143Z,13.08
2023-05-10T04:58:39.362Z,13.60
2023-05-10T05:03:55.694Z,14.01
2023-05-10T05:09:03.699Z,15.09
2023-05-10T05:14:09.087Z,14.75
2023-05-10T05:19:14.139Z,14.65
2023-05-10T05:24:22.197Z,14.66
2023-05-10T05:29:29.033Z,16.29
2023-05-10T05:34:34.492Z,16.81
2023-05-10T05:39:43.620Z,15.59
2023-05-10T05:44:49.838Z,17.06
2023-05-10T05:49:55.112Z,16.81
2023-05-10T05:55:05.848Z,17.59
2023-05-10T06:00:13.980Z,16.10
2023-05-10T06:05:19.305Z,16.57
2023-05-10T06:10:28.053Z,16.24
2023-05-10T06:15:33.784Z,17.36
2023-05-10T06:20:41.640Z,17.79
2023-05-10T06:25:49.904Z,17.48
2023-05-10T06:30:56.352Z,19.65
2023-05-10T06:36:05.216Z,19.05
2023-05-10T06:41:16.168Z,19.05
2023-05-10T06:46:21.500Z,20.12
2023-05-10T06:51:27.503Z,18.25
2023-05-10T06:56:35.448Z,19.68
2023-05-10T07:01:40.515Z,19.13
2023-05-10T07:06:50.484Z,19.08
2023-05-10T07:12:00.210Z,18.84
2023-05-10T07:17:05.373Z,18.82
2023-05-10T07:22:10.416Z,19.64
2023-05-10T07:27:18.055Z,18.39
2023-05-10T07:32:23.535Z,18.42
2023-05-10T07:37:29.061Z,18.53
2023-05-10T07:42:36.716Z,19.04
2023-05-10T07:47:41.938Z,18.15
2023-05-10T07:52:47.159Z,18.42
2023-05-10T07:57:54.968Z,18.50
2023-05-10T08:03:01.210Z,19.24
2023-05-10T08:08:10.793Z,18.41
2023-05-10T08:13:19.398Z,19.79
2023-05-10T08:18:25.114Z,19.27
2023-05-10T08:23:31.955Z,19.59
2023-05-10T08:28:43.807Z,19.57
2023-05-10T08:33:52.701Z,19.19
2023-05-10T08:38:58.480Z,19.65
2023-05-10T08:44:08.409Z,19.47
2023-05-10T08:49:16.768Z,20.55
2023-05-10T08:54:22.370Z,19.27
2023-05-10T08:59:30.746Z,19.96
2023-05-10T09:04:36.730Z,19.62
2023-05-10T09:09:42.273Z,20.29
2023-05-10T09:14:52.371Z,19.80
2023-05-10T09:20:02.347Z,19.81
2023-05-10T09:25:12.175Z,20.06
2023-05-10T09:30:28.744Z,19.53
2023-05-10T09:35:39.581Z,19.81
2023-05-10T09:40:59.248Z,20.88
2023-05-10T09:46:15.187Z,20.38
2023-05-10T09:51:23.745Z,20.80
2023-05-10T09:56:43.540Z,20.61
2023-05-10T10:01:59.572Z,21.39
2023-05-10T10:07:06.913Z,21.23
2023-05-10T10:12:12.294Z,21.10
2023-05-10T10:17:20.336Z,20.54
2023-05-10T10:22:26.181Z,21.26
2023-05-10T10:27:41.901Z,21.47
2023-05-10T10:33:24.309Z,21.06
2023-05-10T10:38:41.978Z,21.38
2023-05-10T10:43:49.708Z,21.49
2023-05-10T10:49:16.170Z,21.74
2023-05-10T10:54:32.197Z,21.34
2023-05-10T10:59:40.694Z,21.49
2023-05-10T11:04:53.397Z,21.00
2023-05-10T11:09:58.696Z,21.40
2023-05-10T11:15:06.105Z,21.38
2023-05-10T11:20:26.312Z,21.54
2023-05-10T11:25:37.032Z,21.61
2023-05-10T11:30:44.387Z,21.23
2023-05-10T11:35:52.222Z,21.33
2023-05-10T11:40:59.124Z,21.98
2023-05-10T11:46:04.903Z,21.26
2023-05-10T11:51:19.577Z,22.00
2023-05-10T11:56:24.937Z,21.94
2023-05-10T12:01:32.273Z,21.58
2023-05-10T12:06:49.013Z,21.89
2023-05-10T12:12:06.064Z,22.36
2023-05-10T12:17:16.151Z,22.28
2023-05-10T12:22:30.158Z,22.13
2023-05-10T12:27:38.768Z,22.05
2023-05-10T12:32:46.437Z,21.63
2023-05-10T12:37:58.175Z,21.89
2023-05-10T12:43:21.472Z,22.12
2023-05-10T12:48:35.171Z,22.47
2023-05-10T12:53:49.340Z,22.18
2023-05-10T12:58:56.969Z,22.47
2023-05-10T13:04:02.036Z,22.05
2023-05-10T13:09:12.546Z,22.46
2023-05-10T13:14:17.665Z,22.60
2023-05-10T13:19:22.833Z,22.04
2023-05-10T13:24:32.828Z,22.69
2023-05-10T13:29:38.051Z,22.13
2023-05-10T13:34:44.375Z,22.56
2023-05-10T13:39:53.372Z,22.28
2023-05-10T13:44:58.462Z,22.36
2023-05-10T13:50:05.101Z,22.69
2023-05-10T13:55:13.556Z,22.28
2023-05-10T14:00:28.426Z,22.35
2023-05-10T14:05:36.730Z,22.21
2023-05-10T14:10:45.547Z,21.79
2023-05-10T14:15:50.808Z,22.11
2023-05-10T14:20:56.610Z,21.86
2023-05-10T14:26:04.308Z,21.67
2023-05-10T14:31:10.584Z,21.74
2023-05-10T14:36:19.230Z,22.09
2023-05-10T14:41:27.589Z,21.69
2023-05-10T14:46:42.965Z,21.77
2023-05-10T14:51:50.514Z,21.43
2023-05-10T14:57:02.367Z,21.59
2023-05-10T15:02:09.432Z,21.56
2023-05-10T15:07:19.492Z,21.61
2023-05-10T15:12:29.499Z,21.58
2023-05-10T15:17:34.769Z,21.62
2023-05-10T15:22:40.170Z,21.90
2023-05-10T15:27:48.218Z,21.62
2023-05-10T15:32:54.727Z,21.80
2023-05-10T15:37:59.996Z,21.49
2023-05-10T15:43:09.020Z,21.11
2023-05-10T15:48:14.260Z,20.69
2023-05-10T15:53:20.543Z,20.66
2023-05-10T15:58:31.024Z,20.57
2023-05-10T16:03:38.141Z,20.53
2023-05-10T16:08:43.460Z,20.38
2023-05-10T16:13:53.970Z,20.56
2023-05-10T16:19:01.507Z,20.08
2023-05-10T16:24:08.380Z,19.99
2023-05-10T16:29:18.070Z,19.71
2023-05-10T16:34:25.469Z,19.48
2023-05-10T16:39:31.165Z,19.62
2023-05-10T16:44:40.517Z,19.69
2023-05-10T16:49:48.907Z,19.68
2023-05-10T16:54:54.579Z,19.43
2023-05-10T17:00:05.418Z,19.24
2023-05-10T17:05:11.106Z,19.36
2023-05-10T17:10:16.357Z,19.33
2023-05-10T17:15:26.496Z,19.41
2023-05-10T17:20:31.620Z,19.49
2023-05-10T17:25:38.595Z,19.01
2023-05-10T17:30:46.825Z,18.79
2023-05-10T17:35:52.139Z,18.84
2023-05-10T17:40:57.224Z,19.25
2023-05-10T17:46:05.224Z,19.53
2023-05-10T17:51:11.503Z,19.22
2023-05-10T17:56:16.959Z,19.45
2023-05-10T18:01:25.606Z,18.97
2023-05-10T18:06:31.095Z,18.34
2023-05-10T18:11:40.080Z,18.60
2023-05-10T18:16:48.166Z,18.62
2023-05-10T18:21:54.851Z,18.63
2023-05-10T18:27:04.113Z,18.34
2023-05-10T18:32:12.416Z,18.30
2023-05-10T18:37:18.314Z,18.30
2023-05-10T18:42:24.681Z,18.54
2023-05-10T18:47:32.825Z,18.35
2023-05-10T18:52:39.029Z,18.27
2023-05-10T18:57:48.555Z,17.96
2023-05-10T19:02:57.126Z,17.38
2023-05-10T19:08:06.266Z,17.15
2023-05-10T19:13:11.912Z,17.28
2023-05-10T19:18:23.625Z,17.90
2023-05-10T19:23:29.274Z,18.11
2023-05-10T19:28:36.588Z,17.66
2023-05-10T19:33:45.607Z,17.31
2023-05-10T19:38:52.443Z,17.30
2023-05-10T19:43:58.450Z,17.49
2023-05-10T19:49:07.338Z,16.94
2023-05-10T19:54:13.090Z,17.23
2023-05-10T19:59:19.795Z,16.93
2023-05-10T20:04:31.655Z,16.68
2023-05-10T20:09:37.731Z,16.50
2023-05-10T20:14:42.932Z,16.83
2023-05-10T20:19:50.891Z,16.65
2023-05-10T20:24:56.382Z,16.45
2023-05-10T20:30:01.480Z,16.26
2023-05-10T20:35:10.204Z,15.92
2023-05-10T20:40:16.338Z,15.97
2023-05-10T20:45:22.080Z,15.67
2023-05-10T20:50:30.149Z,15.72
2023-05-10T20:55:35.185Z,15.58
2023-05-10T21:00:40.423Z,15.48
2023-05-10T21:05:48.235Z,15.32
2023-05-10T21:10:53.392Z,15.20
2023-05-10T21:15:58.454Z,15.05
2023-05-10T21:21:06.348Z,15.01
2023-05-10T21:26:11.413Z,14.81
2023-05-10T21:31:17.178Z,14.99
2023-05-10T21:36:24.946Z,15.05
2023-05-10T21:41:31.322Z,15.15
2023-05-10T21:46:36.372Z,14.95
2023-05-10T21:51:44.325Z,14.70
2023-05-10T21:56:49.505Z,14.87
2023-05-10T22:01:54.647Z,14.91
2023-05-10T22:07:03.925Z,14.89
2023-05-10T22:12:09.430Z,15.12
2023-05-10T22:17:14.638Z,15.11
2023-05-10T22:22:22.735Z,15.16
2023-05-10T22:27:27.921Z,14.75
2023-05-10T22:32:34.298Z,14.47
2023-05-10T22:37:41.993Z,14.41
2023-05-10T22:42:47.097Z,14.21
2023-05-10T22:47:52.575Z,14.20
2023-05-10T22:53:00.327Z,14.18
2023-05-10T22:58:05.983Z,14.05
2023-05-10T23:03:11.296Z,13.96
2023-05-10T23:08:20.126Z,14.19
2023-05-10T23:13:25.187Z,14.24
2023-05-10T23:18:30.183Z,14.12
2023-05-10T23:23:37.864Z,14.00
2023-05-10T23:28:43.282Z,13.82
2023-05-10T23:33:48.449Z,13.65
2023-05-10T23:38:56.193Z,13.40
2023-05-10T23:44:01.680Z,13.36
2023-05-10T23:49:06.770Z,13.39
2023-05-10T23:54:14.380Z,13.29
2023-05-10T23:59:19.471Z,13.26
